Time;durP1;ratioP1;P1;durP2;ratioP2;P2;SDS_P1;SDS_P2;PMS_P1;PMS_P2;Temp;Humidity;BMP_temperature;BMP_pressure;BME280_temperature;BME280_humidity;BME280_pressure;Samples;Min_cycle;Max_cycle;Signal;HPM_P1;HPM_P2
2022/12/26 00:01:17;;;;;;;9.77;7.72;;;18.40;57.40;;;;;;5054132;28;20171;-61
2022/12/26 00:03:42;;;;;;;7.85;7.05;;;18.50;57.50;;;;;;5054340;28;20268;-61
2022/12/26 00:06:16;;;;;;;7.93;7.13;;;18.50;57.50;;;;;;5053758;28;20577;-60
2022/12/26 00:08:42;;;;;;;8.65;7.75;;;18.40;57.40;;;;;;5053767;28;20194;-60
2022/12/26 00:11:07;;;;;;;9.68;7.90;;;18.40;57.40;;;;;;5054437;28;20179;-60
2022/12/26 00:13:33;;;;;;;9.05;7.15;;;18.40;57.50;;;;;;5054471;28;20179;-60
2022/12/26 00:15:58;;;;;;;8.63;7.47;;;18.40;57.50;;;;;;5053944;28;20268;-62
2022/12/26 00:18:24;;;;;;;8.95;7.50;;;18.40;57.50;;;;;;5054588;28;20254;-61
2022/12/26 00:20:49;;;;;;;9.38;8.30;;;18.40;57.50;;;;;;5053303;28;20256;-61
2022/12/26 00:23:15;;;;;;;7.20;6.22;;;18.30;57.50;;;;;;5054385;28;20211;-61
2022/12/26 00:25:40;;;;;;;7.88;6.75;;;18.30;57.40;;;;;;5054105;28;20228;-60
2022/12/26 00:28:06;;;;;;;7.65;6.85;;;18.30;57.40;;;;;;5053608;28;20175;-61
2022/12/26 00:30:31;;;;;;;7.88;6.90;;;18.30;57.50;;;;;;5053936;28;20506;-60
2022/12/26 00:32:57;;;;;;;7.85;6.78;;;18.30;57.40;;;;;;5054124;28;20171;-60
2022/12/26 00:35:22;;;;;;;8.15;7.15;;;18.30;57.50;;;;;;5053468;28;20177;-61
2022/12/26 00:37:48;;;;;;;8.65;7.38;;;18.20;57.40;;;;;;5053975;28;20253;-61
2022/12/26 00:40:13;;;;;;;7.65;6.85;;;18.30;57.50;;;;;;5054114;28;20198;-61
2022/12/26 00:42:39;;;;;;;7.65;6.85;;;18.20;57.50;;;;;;5052930;28;20297;-61
2022/12/26 00:45:05;;;;;;;8.73;7.55;;;18.20;57.50;;;;;;5053885;28;20550;-61
2022/12/26 00:47:30;;;;;;;7.80;6.75;;;18.20;57.50;;;;;;5053665;28;20515;-61
2022/12/26 00:49:56;;;;;;;7.57;6.85;;;18.20;57.50;;;;;;5052948;28;20182;-60
2022/12/26 00:52:21;;;;;;;7.18;6.38;;;18.20;57.40;;;;;;5053669;28;20183;-60
2022/12/26 00:54:47;;;;;;;8.00;6.95;;;18.20;57.50;;;;;;5053537;28;20163;-60
2022/12/26 00:57:13;;;;;;;8.77;7.32;;;18.20;57.50;;;;;;5053125;28;20186;-60
2022/12/26 00:59:38;;;;;;;7.47;6.30;;;18.20;57.50;;;;;;5053349;28;20175;-60
2022/12/26 01:02:36;;;;;;;8.38;7.43;;;18.20;57.50;;;;;;5053372;28;20551;-60
2022/12/26 01:04:49;;;;;;;7.20;6.38;;;18.20;57.50;;;;;;5052386;28;20643;-60
2022/12/26 01:07:15;;;;;;;7.70;6.72;;;18.20;57.50;;;;;;5053430;28;20700;-60
2022/12/26 01:09:40;;;;;;;8.38;7.10;;;18.20;57.50;;;;;;5053158;28;20249;-60
2022/12/26 01:12:06;;;;;;;7.45;6.75;;;18.10;57.50;;;;;;5052839;28;20252;-60
2022/12/26 01:14:31;;;;;;;7.78;6.70;;;18.10;57.40;;;;;;5053076;28;20174;-61
2022/12/26 01:16:57;;;;;;;7.32;6.30;;;18.10;57.40;;;;;;5052220;28;20272;-61
2022/12/26 01:19:22;;;;;;;7.32;6.60;;;18.10;57.50;;;;;;5053462;28;20167;-61
2022/12/26 01:21:48;;;;;;;8.50;6.68;;;18.10;57.50;;;;;;5053060;28;20171;-61
2022/12/26 01:24:13;;;;;;;7.47;6.78;;;18.10;57.40;;;;;;5052617;28;20186;-60
2022/12/26 01:26:39;;;;;;;7.75;7.05;;;18.10;57.50;;;;;;5052966;28;20175;-60
2022/12/26 01:29:04;;;;;;;7.88;7.05;;;18.10;57.50;;;;;;5053340;28;20183;-60
2022/12/26 01:31:30;;;;;;;7.75;6.95;;;18.10;57.50;;;;;;5052380;28;20622;-60
2022/12/26 01:33:55;;;;;;;7.68;6.88;;;18.10;57.50;;;;;;5052853;28;20209;-61
2022/12/26 01:36:21;;;;;;;7.45;6.75;;;18.10;57.50;;;;;;5053072;28;20183;-60
2022/12/26 01:38:46;;;;;;;7.35;6.60;;;18.10;57.50;;;;;;5052121;28;20171;-61
2022/12/26 01:41:21;;;;;;;7.18;6.43;;;18.00;57.40;;;;;;5053018;28;20649;-62
2022/12/26 01:44:34;;;;;;;7.28;6.50;;;18.00;57.40;;;;;;5052627;28;20690;-61
2022/12/26 01:46:59;;;;;;;7.05;6.32;;;18.00;57.40;;;;;;5035491;28;20183;-60
2022/12/26 01:49:30;;;;;;;7.28;6.57;;;18.00;57.40;;;;;;5052963;28;20674;-60
2022/12/26 01:51:58;;;;;;;7.00;6.30;;;18.00;57.40;;;;;;5051621;28;20266;-60
2022/12/26 01:54:24;;;;;;;7.30;6.60;;;17.90;57.30;;;;;;5052055;28;20262;-60
2022/12/26 01:56:49;;;;;;;8.50;6.95;;;18.00;57.40;;;;;;5051212;28;20270;-60
2022/12/26 01:59:19;;;;;;;7.00;6.22;;;18.00;57.40;;;;;;5051014;28;20258;-60
2022/12/26 02:01:44;;;;;;;7.22;6.53;;;18.00;57.40;;;;;;5052593;28;20206;-60
2022/12/26 02:06:56;;;;;;;6.72;6.03;;;18.00;57.40;;;;;;5050974;28;20177;-60
2022/12/26 02:09:21;;;;;;;6.85;6.15;;;18.00;57.40;;;;;;5052553;28;20269;-60
2022/12/26 02:12:17;;;;;;;6.63;5.95;;;18.00;57.40;;;;;;5034761;28;20176;-60
2022/12/26 02:14:43;;;;;;;6.70;6.00;;;18.00;57.40;;;;;;5048548;28;20191;-61
2022/12/26 02:17:08;;;;;;;6.55;5.95;;;17.90;57.30;;;;;;5051413;28;20225;-61
2022/12/26 02:19:50;;;;;;;6.53;5.93;;;17.90;57.30;;;;;;5052370;28;20194;-61
2022/12/26 02:22:41;;;;;;;7.68;6.13;;;17.90;57.30;;;;;;5035339;28;20289;-61
2022/12/26 02:25:35;;;;;;;7.32;6.28;;;17.90;57.40;;;;;;5052653;28;20300;-60
2022/12/26 02:28:33;;;;;;;7.03;6.25;;;17.90;57.40;;;;;;5050733;28;20168;-60
2022/12/26 02:31:07;;;;;;;6.55;5.82;;;17.90;57.40;;;;;;5041924;28;20179;-60
2022/12/26 02:33:38;;;;;;;7.05;6.35;;;17.90;57.40;;;;;;5056133;28;20265;-60
2022/12/26 02:36:20;;;;;;;6.82;5.82;;;17.90;57.40;;;;;;5054465;28;20175;-61
2022/12/26 02:39:09;;;;;;;6.60;5.75;;;17.90;57.40;;;;;;5055894;28;20633;-60
2022/12/26 02:41:44;;;;;;;6.55;5.95;;;17.90;58.00;;;;;;5054267;28;20282;-61
2022/12/26 02:47:05;;;;;;;6.45;5.85;;;17.80;57.30;;;;;;5055831;28;20201;-60
2022/12/26 03:15:03;;;;;;;5.97;5.45;;;17.80;57.30;;;;;;5055816;28;20209;-60
2022/12/26 03:17:43;;;;;;;6.88;5.95;;;17.70;57.30;;;;;;5053548;28;20219;-60
2022/12/26 03:20:32;;;;;;;6.75;6.00;;;17.70;57.20;;;;;;5055620;28;20179;-61
2022/12/26 03:23:06;;;;;;;5.55;5.05;;;17.70;57.20;;;;;;5054163;28;20592;-60
2022/12/26 03:28:23;;;;;;;6.28;5.68;;;17.70;57.30;;;;;;5054407;28;20534;-60
2022/12/26 03:30:49;;;;;;;6.07;5.47;;;17.70;57.30;;;;;;5053294;28;20167;-60
2022/12/26 03:36:00;;;;;;;6.40;5.80;;;17.70;57.20;;;;;;5055436;28;20615;-61
2022/12/26 03:38:33;;;;;;;5.45;4.95;;;17.70;57.20;;;;;;5053286;28;20210;-60
2022/12/26 04:19:22;;;;;;;6.00;5.40;;;17.70;57.20;;;;;;5054254;28;20284;-60
2022/12/26 04:19:24;;;;;;;5.68;5.07;;;17.60;57.20;;;;;;5053557;28;20182;-61
2022/12/26 04:45:04;;;;;;;6.22;5.72;;;17.50;57.10;;;;;;5039342;28;20187;-60
2022/12/26 04:47:30;;;;;;;5.82;5.10;;;17.50;57.10;;;;;;5052552;28;20171;-60
2022/12/26 04:50:11;;;;;;;5.25;4.75;;;17.50;57.10;;;;;;5052182;28;20178;-60
2022/12/26 04:52:58;;;;;;;6.75;6.03;;;17.50;57.10;;;;;;5053298;28;20167;-60
2022/12/26 04:55:28;;;;;;;5.07;4.68;;;17.50;57.10;;;;;;5052127;28;20282;-60
2022/12/26 04:57:53;;;;;;;6.18;5.45;;;17.50;57.10;;;;;;5053539;28;20175;-61
2022/12/26 05:00:19;;;;;;;6.00;5.10;;;17.50;57.10;;;;;;5053799;28;20175;-60
2022/12/26 05:11:33;;;;;;;4.97;4.53;;;17.50;57.10;;;;;;5043571;28;20244;-60
2022/12/26 05:13:58;;;;;;;5.25;4.75;;;17.40;57.00;;;;;;5053582;28;20175;-61
2022/12/26 05:30:17;;;;;;;4.82;4.43;;;17.40;57.00;;;;;;5051486;28;20217;-60
2022/12/26 05:35:26;;;;;;;4.63;4.25;;;17.40;57.00;;;;;;5053104;28;20228;-60
2022/12/26 05:37:51;;;;;;;4.57;4.18;;;17.40;57.00;;;;;;5051893;28;20174;-61
2022/12/26 05:40:17;;;;;;;4.47;4.07;;;17.40;57.00;;;;;;5053076;28;20175;-61
2022/12/26 05:42:43;;;;;;;4.32;3.92;;;17.40;57.00;;;;;;5052536;28;20203;-61
2022/12/26 05:45:08;;;;;;;4.30;4.00;;;17.40;57.00;;;;;;5052317;28;20175;-60
2022/12/26 05:47:34;;;;;;;4.75;4.35;;;17.40;57.00;;;;;;5052826;28;20167;-60
2022/12/26 05:49:59;;;;;;;4.90;4.50;;;17.40;57.00;;;;;;5052993;28;20178;-60
2022/12/26 05:52:25;;;;;;;4.55;4.15;;;17.40;57.00;;;;;;5052328;28;20172;-60
2022/12/26 05:54:50;;;;;;;4.13;3.83;;;17.40;57.00;;;;;;5052821;28;20186;-60
2022/12/26 05:57:16;;;;;;;4.10;3.80;;;17.30;57.00;;;;;;5052864;28;20544;-61
2022/12/26 05:59:41;;;;;;;4.10;3.80;;;17.40;57.00;;;;;;5051758;28;20626;-60
2022/12/26 06:02:07;;;;;;;3.97;3.67;;;17.40;57.00;;;;;;5052469;28;20202;-60
2022/12/26 06:04:34;;;;;;;4.18;3.80;;;17.30;57.00;;;;;;5054608;28;20186;-60
2022/12/26 06:06:59;;;;;;;4.18;3.88;;;17.30;57.00;;;;;;5056104;28;20528;-60
2022/12/26 06:09:25;;;;;;;3.72;3.42;;;17.30;57.00;;;;;;5056833;28;20274;-60
2022/12/26 06:11:50;;;;;;;3.95;3.65;;;17.30;57.00;;;;;;5056715;28;20258;-60
2022/12/26 06:14:16;;;;;;;4.88;4.40;;;17.30;57.00;;;;;;5056129;28;20269;-60
2022/12/26 06:16:41;;;;;;;6.55;3.67;;;17.30;57.00;;;;;;5056258;28;20317;-60
2022/12/26 06:19:07;;;;;;;3.85;3.55;;;17.30;57.00;;;;;;5056813;28;20197;-61
2022/12/26 06:21:32;;;;;;;3.60;3.38;;;17.30;56.90;;;;;;5055746;28;20594;-60
2022/12/26 06:23:58;;;;;;;4.22;3.92;;;17.30;57.00;;;;;;5056509;28;20641;-60
2022/12/26 06:26:23;;;;;;;3.95;3.65;;;17.30;56.90;;;;;;5055676;28;20185;-60
2022/12/26 06:28:49;;;;;;;3.78;3.55;;;17.30;57.00;;;;;;5056157;28;20265;-60
2022/12/26 06:31:19;;;;;;;3.88;3.58;;;17.30;56.90;;;;;;5056471;28;20179;-60
2022/12/26 06:33:44;;;;;;;3.53;3.22;;;17.30;56.90;;;;;;5055361;28;20980;-60
2022/12/26 06:36:18;;;;;;;3.13;2.92;;;17.20;56.90;;;;;;5056377;28;20171;-61
2022/12/26 06:38:43;;;;;;;3.70;3.40;;;17.20;56.90;;;;;;5056235;28;20183;-61
2022/12/26 06:41:10;;;;;;;3.22;3.03;;;17.20;56.90;;;;;;5055664;28;20176;-61
2022/12/26 06:43:36;;;;;;;3.53;3.22;;;17.20;56.90;;;;;;5055990;28;20262;-61
2022/12/26 06:46:03;;;;;;;3.03;2.80;;;17.20;56.90;;;;;;5056136;28;20214;-60
2022/12/26 06:48:28;;;;;;;3.22;3.03;;;17.20;56.90;;;;;;5055509;28;20321;-60
2022/12/26 06:50:54;;;;;;;3.15;2.95;;;17.20;56.90;;;;;;5056024;28;20634;-60
2022/12/26 06:53:20;;;;;;;3.33;3.10;;;17.20;56.90;;;;;;5056126;28;20171;-60
2022/12/26 06:55:46;;;;;;;3.00;2.80;;;17.20;56.90;;;;;;5055028;28;20767;-60
2022/12/26 06:58:12;;;;;;;3.83;3.53;;;17.20;56.90;;;;;;5056051;28;20187;-60
2022/12/26 07:00:37;;;;;;;3.38;3.08;;;17.20;56.90;;;;;;5055594;28;20171;-60
2022/12/26 07:03:03;;;;;;;3.28;3.08;;;17.20;56.90;;;;;;5055130;28;20237;-60
2022/12/26 07:05:28;;;;;;;3.38;3.08;;;17.20;56.90;;;;;;5056008;28;20175;-60
2022/12/26 07:07:54;;;;;;;3.30;3.00;;;17.10;56.90;;;;;;5055508;28;20175;-60
2022/12/26 07:10:19;;;;;;;3.80;3.42;;;17.10;56.80;;;;;;5054988;28;20308;-60
2022/12/26 07:12:46;;;;;;;3.00;2.72;;;17.10;56.80;;;;;;5055325;28;20712;-60
2022/12/26 07:15:11;;;;;;;3.25;3.05;;;17.10;56.80;;;;;;5055157;28;20649;-60
2022/12/26 07:17:37;;;;;;;3.40;3.10;;;17.10;56.80;;;;;;5054557;28;20194;-60
2022/12/26 07:20:03;;;;;;;2.80;2.60;;;17.10;56.90;;;;;;5055470;28;20175;-60
2022/12/26 07:22:29;;;;;;;3.20;3.00;;;17.10;56.90;;;;;;5055616;28;20207;-60
2022/12/26 07:24:54;;;;;;;3.50;3.20;;;17.10;56.90;;;;;;5054546;28;20183;-60
2022/12/26 07:27:20;;;;;;;2.97;2.78;;;17.10;56.90;;;;;;5055537;28;20171;-60
2022/12/26 07:29:46;;;;;;;2.95;2.65;;;17.10;56.90;;;;;;5054112;28;20182;-59
2022/12/26 07:32:11;;;;;;;3.08;2.88;;;17.10;56.80;;;;;;5055248;28;20175;-60
2022/12/26 07:34:37;;;;;;;3.47;3.17;;;17.10;56.80;;;;;;5055022;28;20561;-60
2022/12/26 07:37:02;;;;;;;2.80;2.60;;;17.10;56.80;;;;;;5054628;28;20270;-60
2022/12/26 07:39:28;;;;;;;3.05;2.85;;;17.10;56.80;;;;;;5055276;28;20657;-60
2022/12/26 07:41:56;;;;;;;2.90;2.70;;;17.10;56.80;;;;;;5054794;28;20181;-62
2022/12/26 07:44:22;;;;;;;2.90;2.70;;;17.10;56.80;;;;;;5054282;28;20626;-62
2022/12/26 07:46:47;;;;;;;2.80;2.60;;;17.10;56.80;;;;;;5054754;28;20181;-62
2022/12/26 07:49:13;;;;;;;3.47;2.75;;;17.00;56.80;;;;;;5055006;28;20505;-61
2022/12/26 07:51:39;;;;;;;2.97;2.67;;;17.10;56.80;;;;;;5054059;28;20178;-60
2022/12/26 07:54:04;;;;;;;2.83;2.63;;;17.00;56.80;;;;;;5055074;28;20176;-61
2022/12/26 07:56:31;;;;;;;5.10;2.47;;;17.00;56.80;;;;;;5054714;28;20714;-66
2022/12/26 07:58:56;;;;;;;2.55;2.35;;;17.00;57.20;;;;;;5054151;28;20179;-67
2022/12/26 08:01:22;;;;;;;3.63;2.78;;;17.00;56.90;;;;;;5054799;28;20258;-67
2022/12/26 08:03:48;;;;;;;2.75;2.55;;;17.00;56.90;;;;;;5054477;28;20336;-65
2022/12/26 08:06:13;;;;;;;2.80;2.60;;;17.00;56.80;;;;;;5054095;28;20171;-64
2022/12/26 08:08:39;;;;;;;2.50;2.30;;;17.00;56.90;;;;;;5054538;28;20204;-64
2022/12/26 08:11:05;;;;;;;2.90;2.70;;;17.00;56.90;;;;;;5054490;28;20179;-64
2022/12/26 08:13:31;;;;;;;2.30;2.20;;;17.00;56.80;;;;;;5053505;28;20737;-65
2022/12/26 08:15:57;;;;;;;2.53;2.33;;;17.00;56.90;;;;;;5054268;28;20252;-65
2022/12/26 08:18:22;;;;;;;2.58;2.20;;;17.00;56.90;;;;;;5054570;28;20255;-65
2022/12/26 08:20:48;;;;;;;2.58;2.38;;;17.00;56.80;;;;;;5053531;28;20534;-65
2022/12/26 08:23:14;;;;;;;2.58;2.38;;;17.00;56.90;;;;;;5054414;28;20217;-65
2022/12/26 08:25:39;;;;;;;2.42;2.22;;;17.00;56.90;;;;;;5053990;28;20211;-64
2022/12/26 08:28:05;;;;;;;2.50;2.30;;;17.00;56.80;;;;;;5052887;28;20278;-64
2022/12/26 08:30:30;;;;;;;2.65;2.00;;;17.00;56.80;;;;;;5053979;28;20262;-64
2022/12/26 08:32:56;;;;;;;2.70;2.40;;;17.00;56.80;;;;;;5054093;28;20270;-64
2022/12/26 08:35:21;;;;;;;2.85;2.40;;;17.00;56.80;;;;;;5053979;28;20254;-64
2022/12/26 08:37:47;;;;;;;2.03;1.92;;;17.00;56.80;;;;;;5053881;28;20274;-64
2022/12/26 08:40:12;;;;;;;2.65;2.45;;;17.10;56.80;;;;;;5053423;28;20210;-65
2022/12/26 08:42:38;;;;;;;2.10;2.00;;;17.10;56.80;;;;;;5053691;28;20195;-64
2022/12/26 08:45:04;;;;;;;2.38;2.17;;;17.00;56.80;;;;;;5053824;28;20198;-64
2022/12/26 08:47:29;;;;;;;3.25;2.20;;;17.00;56.70;;;;;;5053041;28;20171;-64
2022/12/26 08:49:55;;;;;;;1.90;1.73;;;17.00;56.80;;;;;;5053704;28;20278;-64
2022/12/26 08:52:20;;;;;;;2.35;2.15;;;17.00;56.80;;;;;;5053862;28;20258;-64
2022/12/26 08:54:46;;;;;;;2.00;1.90;;;17.00;56.80;;;;;;5052789;28;20262;-64
2022/12/26 08:57:12;;;;;;;3.13;2.17;;;17.00;56.70;;;;;;5053833;28;20262;-64
2022/12/26 08:59:38;;;;;;;2.33;2.13;;;17.00;56.80;;;;;;5053450;28;20618;-64
2022/12/26 09:02:03;;;;;;;3.25;2.13;;;17.00;56.70;;;;;;5052904;28;20177;-64
2022/12/26 09:04:29;;;;;;;2.20;2.00;;;17.10;56.60;;;;;;5053721;28;20263;-64
2022/12/26 09:06:54;;;;;;;2.85;2.08;;;17.10;56.60;;;;;;5053289;28;20171;-63
2022/12/26 09:09:20;;;;;;;1.77;1.67;;;17.10;56.50;;;;;;5052779;28;20236;-64
2022/12/26 09:11:45;;;;;;;2.30;2.10;;;17.10;56.60;;;;;;5053234;28;20560;-65
2022/12/26 09:14:11;;;;;;;2.42;1.85;;;17.10;56.60;;;;;;5053454;28;20626;-65
2022/12/26 09:16:41;;;;;;;2.03;1.80;;;17.10;56.70;;;;;;5052254;28;20230;-65
2022/12/26 09:19:09;;;;;;;2.47;1.77;;;17.00;56.70;;;;;;5053548;28;20178;-65
2022/12/26 09:21:35;;;;;;;2.00;1.90;;;17.00;56.90;;;;;;5035181;28;20545;-65
2022/12/26 09:24:05;;;;;;;1.75;1.65;;;17.00;56.70;;;;;;5052413;28;20211;-65
2022/12/26 09:26:31;;;;;;;2.20;2.00;;;17.00;57.30;;;;;;5052766;28;20183;-65
2022/12/26 09:28:56;;;;;;;1.90;1.80;;;17.10;56.80;;;;;;5053121;28;20186;-64
2022/12/26 09:31:27;;;;;;;1.80;1.67;;;17.00;56.70;;;;;;5052607;28;20660;-64
2022/12/26 09:33:53;;;;;;;2.00;1.55;;;17.00;56.70;;;;;;5052984;28;20179;-64
2022/12/26 09:36:21;;;;;;;1.77;1.67;;;17.00;56.80;;;;;;5052329;28;20244;-65
2022/12/26 09:38:47;;;;;;;1.95;1.80;;;17.00;56.80;;;;;;5053965;28;20264;-65
2022/12/26 09:41:44;;;;;;;3.95;2.10;;;17.00;56.90;;;;;;5052717;28;20171;-64
2022/12/26 09:44:41;;;;;;;2.75;1.67;;;17.00;56.90;;;;;;5052030;28;20722;-64
2022/12/26 09:47:32;;;;;;;2.67;1.80;;;17.00;56.80;;;;;;5051974;28;20660;-64
2022/12/26 09:50:19;;;;;;;1.80;1.60;;;17.00;57.60;;;;;;5051864;28;20236;-64
2022/12/26 09:52:55;;;;;;;1.75;1.65;;;17.00;57.00;;;;;;5052356;28;20171;-64
2022/12/26 09:55:44;;;;;;;3.50;2.00;;;17.00;57.00;;;;;;5052914;28;20166;-65
2022/12/26 09:58:30;;;;;;;2.40;1.67;;;17.00;57.10;;;;;;5052064;28;20189;-65
2022/12/26 10:00:58;;;;;;;2.67;1.80;;;17.00;57.00;;;;;;5052968;28;20179;-65
2022/12/26 10:03:24;;;;;;;1.65;1.55;;;17.00;57.10;;;;;;5052577;28;20252;-65
2022/12/26 10:06:14;;;;;;;1.65;1.50;;;17.00;57.10;;;;;;5051418;28;20622;-66
2022/12/26 10:09:01;;;;;;;2.42;1.58;;;17.00;57.20;;;;;;5051607;28;20265;-65
2022/12/26 10:11:46;;;;;;;2.67;1.73;;;17.00;57.20;;;;;;5051969;28;20175;-65
2022/12/26 10:14:27;;;;;;;1.95;1.60;;;17.00;57.20;;;;;;5051575;28;20178;-67
2022/12/26 10:17:02;;;;;;;2.50;1.80;;;17.10;57.40;;;;;;5052148;28;20227;-68
2022/12/26 10:19:56;;;;;;;1.73;1.63;;;17.00;57.30;;;;;;5035024;28;20178;-67
2022/12/26 10:22:37;;;;;;;3.78;2.00;;;17.00;57.30;;;;;;5048638;28;20211;-67
2022/12/26 10:25:03;;;;;;;3.03;1.80;;;17.00;57.30;;;;;;5052464;28;20163;-66
2022/12/26 10:27:30;;;;;;;1.52;1.42;;;17.00;57.30;;;;;;5034015;28;20515;-67
2022/12/26 10:30:04;;;;;;;2.38;1.80;;;17.00;57.30;;;;;;5050621;28;20233;-66
2022/12/26 10:32:33;;;;;;;2.10;1.63;;;17.10;57.60;;;;;;5050703;28;20186;-65
2022/12/26 10:35:01;;;;;;;3.40;1.50;;;17.10;57.40;;;;;;5051340;28;20254;-65
2022/12/26 10:37:36;;;;;;;4.10;1.50;;;17.10;57.50;;;;;;5034395;28;20207;-66
2022/12/26 10:40:11;;;;;;;2.75;1.60;;;17.10;57.40;;;;;;5035422;28;20214;-63
2022/12/26 10:42:43;;;;;;;1.88;1.45;;;17.10;58.00;;;;;;5052055;28;20252;-61
2022/12/26 10:45:16;;;;;;;1.92;1.58;;;17.10;57.40;;;;;;5052494;28;20174;-62
2022/12/26 10:47:44;;;;;;;1.40;1.30;;;17.10;57.30;;;;;;5051047;28;20179;-62
2022/12/26 10:50:17;;;;;;;1.98;1.35;;;17.10;57.30;;;;;;5052571;28;20229;-61
2022/12/26 10:52:43;;;;;;;3.00;1.38;;;17.10;57.30;;;;;;5055874;28;20183;-62
2022/12/26 10:55:15;;;;;;;2.70;1.60;;;17.10;57.30;;;;;;5055464;28;20182;-63
2022/12/26 10:57:41;;;;;;;2.03;1.30;;;17.10;57.30;;;;;;5055837;28;20181;-62
2022/12/26 11:00:27;;;;;;;1.40;1.30;;;17.10;57.30;;;;;;5055938;28;20178;-63
2022/12/26 11:03:06;;;;;;;2.20;1.42;;;17.10;57.30;;;;;;5054773;28;20211;-62
2022/12/26 11:05:32;;;;;;;2.50;1.40;;;17.10;57.30;;;;;;5055644;28;20252;-61
2022/12/26 11:08:14;;;;;;;1.90;1.60;;;17.10;57.30;;;;;;5054149;28;20175;-62
2022/12/26 11:10:40;;;;;;;2.10;1.20;;;17.20;57.30;;;;;;5055464;28;20175;-62
2022/12/26 11:13:06;;;;;;;2.50;1.50;;;17.20;57.30;;;;;;5055813;28;20625;-63
2022/12/26 11:15:50;;;;;;;1.67;1.30;;;17.20;57.20;;;;;;5036719;28;20211;-62
2022/12/26 11:18:21;;;;;;;2.55;1.15;;;17.20;57.20;;;;;;5054515;28;20245;-63
2022/12/26 11:20:47;;;;;;;1.75;1.20;;;17.20;57.20;;;;;;5053913;28;20179;-60
2022/12/26 11:23:18;;;;;;;2.03;1.50;;;17.20;57.10;;;;;;5053336;28;20214;-60
2022/12/26 11:25:49;;;;;;;3.13;1.42;;;17.20;57.10;;;;;;5054187;28;20178;-60
2022/12/26 11:28:29;;;;;;;2.20;1.40;;;17.20;57.10;;;;;;5055329;28;20537;-60
2022/12/26 11:30:55;;;;;;;1.65;1.23;;;17.20;57.10;;;;;;5054272;28;20565;-60
2022/12/26 11:33:26;;;;;;;3.13;1.63;;;17.20;57.10;;;;;;5054014;28;20183;-60
2022/12/26 11:36:06;;;;;;;4.57;1.45;;;17.20;57.00;;;;;;5053964;28;20187;-60
2022/12/26 11:38:35;;;;;;;2.22;1.73;;;17.20;57.10;;;;;;5055991;28;20179;-60
2022/12/26 11:41:31;;;;;;;3.47;1.70;;;17.20;57.10;;;;;;5054135;28;20167;-60
2022/12/26 11:44:09;;;;;;;3.20;1.42;;;17.20;57.70;;;;;;5053376;28;20207;-62
2022/12/26 11:46:44;;;;;;;2.70;1.95;;;17.20;57.20;;;;;;5055071;28;20224;-60
2022/12/26 11:49:23;;;;;;;2.65;1.48;;;17.30;57.10;;;;;;5055140;28;20178;-59
2022/12/26 11:51:49;;;;;;;4.00;1.67;;;17.30;57.10;;;;;;5052958;28;20171;-59
2022/12/26 11:54:34;;;;;;;2.53;1.67;;;17.30;57.00;;;;;;5053819;28;20540;-60
2022/12/26 11:57:20;;;;;;;3.50;1.45;;;17.30;57.00;;;;;;5054107;28;20181;-60
2022/12/26 11:59:46;;;;;;;1.50;1.27;;;17.20;56.90;;;;;;5054733;28;20203;-60
2022/12/26 12:02:15;;;;;;;3.10;1.30;;;17.20;57.00;;;;;;5052388;28;20207;-64
2022/12/26 12:04:41;;;;;;;5.38;1.90;;;17.20;57.00;;;;;;5053767;28;20194;-61
2022/12/26 12:07:58;;;;;;;4.60;1.30;;;17.20;57.30;;;;;;5053504;28;20174;-60
2022/12/26 12:10:43;;;;;;;3.78;1.55;;;17.20;57.10;;;;;;5045201;28;20653;-60
2022/12/26 12:13:20;;;;;;;3.80;1.40;;;17.20;57.40;;;;;;5052020;28;20177;-60
2022/12/26 12:16:16;;;;;;;3.15;1.48;;;17.30;57.30;;;;;;5052659;28;20298;-60
2022/12/26 12:19:11;;;;;;;3.15;1.88;;;17.30;57.20;;;;;;5053303;28;20238;-60
2022/12/26 12:22:03;;;;;;;3.25;1.27;;;17.30;57.10;;;;;;5053899;28;20662;-62
2022/12/26 12:25:06;;;;;;;1.60;1.02;;;17.30;56.90;;;;;;5053367;28;20196;-60
2022/12/26 12:27:40;;;;;;;1.73;1.05;;;17.30;56.70;;;;;;5052864;28;20233;-60
2022/12/26 12:30:22;;;;;;;2.22;1.67;;;17.30;56.70;;;;;;5053281;28;20298;-60
2022/12/26 12:32:54;;;;;;;3.97;1.45;;;17.30;56.80;;;;;;5053102;28;20171;-60
2022/12/26 12:35:44;;;;;;;2.95;1.13;;;17.30;57.10;;;;;;5053045;28;20203;-59
2022/12/26 12:38:27;;;;;;;3.15;1.10;;;17.30;56.90;;;;;;5053842;28;20200;-60
2022/12/26 12:41:23;;;;;;;3.17;1.10;;;17.30;56.70;;;;;;5052079;28;20183;-62
2022/12/26 12:44:18;;;;;;;2.20;0.90;;;17.30;56.80;;;;;;5053831;28;20221;-62
2022/12/26 12:47:05;;;;;;;1.58;1.15;;;17.30;56.80;;;;;;5052405;28;20183;-59
2022/12/26 12:49:40;;;;;;;3.72;1.30;;;17.30;57.00;;;;;;5053491;28;20266;-60
2022/12/26 12:52:32;;;;;;;3.63;1.75;;;17.30;57.10;;;;;;5052795;28;20181;-61
2022/12/26 12:55:05;;;;;;;2.10;1.20;;;17.20;57.50;;;;;;5043081;28;20190;-59
2022/12/26 12:57:51;;;;;;;4.35;1.40;;;17.20;57.30;;;;;;5052374;28;20262;-59
2022/12/26 13:00:23;;;;;;;3.28;1.20;;;17.20;57.80;;;;;;5051861;28;20590;-59
2022/12/26 13:03:04;;;;;;;1.80;1.13;;;17.20;57.10;;;;;;5051959;28;20206;-59
2022/12/26 13:06:06;;;;;;;1.98;1.42;;;17.10;57.10;;;;;;5053428;28;20264;-59
2022/12/26 13:08:59;;;;;;;2.17;1.30;;;17.10;57.10;;;;;;5037468;28;20201;-61
2022/12/26 13:11:39;;;;;;;5.25;1.75;;;17.20;57.40;;;;;;5053185;28;20179;-61
2022/12/26 13:14:19;;;;;;;2.97;1.10;;;17.20;57.40;;;;;;5052192;28;20183;-62
2022/12/26 13:16:52;;;;;;;1.45;1.17;;;17.20;57.10;;;;;;5036002;28;20226;-62
2022/12/26 13:19:33;;;;;;;2.80;1.20;;;17.20;57.20;;;;;;5052226;28;20245;-62
2022/12/26 13:22:02;;;;;;;2.70;1.30;;;17.20;57.10;;;;;;5051082;28;20257;-62
2022/12/26 13:24:34;;;;;;;2.22;1.00;;;17.20;57.20;;;;;;5052230;28;20257;-62
2022/12/26 13:27:03;;;;;;;3.08;1.25;;;17.20;57.20;;;;;;5052239;28;20237;-62
2022/12/26 13:29:37;;;;;;;3.15;1.80;;;17.20;57.00;;;;;;5052550;28;20569;-62
2022/12/26 13:32:04;;;;;;;2.60;1.40;;;17.30;57.20;;;;;;5053120;28;20599;-62
2022/12/26 13:34:30;;;;;;;2.55;1.13;;;17.20;57.00;;;;;;5051888;28;20665;-62
2022/12/26 13:36:56;;;;;;;2.92;1.05;;;17.30;57.20;;;;;;5050986;28;20171;-63
2022/12/26 13:39:22;;;;;;;3.85;1.50;;;17.20;57.10;;;;;;5053168;28;20183;-63
2022/12/26 13:44:35;;;;;;;4.30;1.10;;;17.30;57.10;;;;;;5051957;28;20232;-63
2022/12/26 13:47:01;;;;;;;4.05;1.10;;;17.30;57.20;;;;;;5051679;28;20175;-61
2022/12/26 13:49:37;;;;;;;2.28;1.33;;;17.30;57.10;;;;;;5052874;28;20174;-61
2022/12/26 13:52:18;;;;;;;3.28;1.25;;;17.30;57.10;;;;;;5053063;28;20240;-61
2022/12/26 13:54:46;;;;;;;2.75;1.15;;;17.30;57.00;;;;;;5052536;28;20205;-65
2022/12/26 13:57:14;;;;;;;1.77;1.17;;;17.30;57.00;;;;;;5051642;28;20175;-66
2022/12/26 14:00:06;;;;;;;3.55;1.10;;;17.20;56.90;;;;;;5052009;28;20233;-66
2022/12/26 14:02:54;;;;;;;4.35;1.38;;;17.30;57.10;;;;;;5049015;28;20222;-66
2022/12/26 14:05:44;;;;;;;2.30;1.10;;;17.30;57.00;;;;;;5052107;28;20251;-66
2022/12/26 14:08:48;;;;;;;3.08;1.30;;;17.30;57.00;;;;;;5052987;28;20183;-66
2022/12/26 14:11:36;;;;;;;2.28;1.40;;;17.30;57.00;;;;;;5037647;28;20178;-67
2022/12/26 14:14:36;;;;;;;1.95;0.95;;;17.30;56.90;;;;;;5051487;28;20179;-67
2022/12/26 14:17:21;;;;;;;2.25;0.98;;;17.40;57.00;;;;;;5051378;28;20283;-69
2022/12/26 14:20:17;;;;;;;1.92;1.00;;;17.30;56.90;;;;;;5051162;28;20210;-67
2022/12/26 14:22:55;;;;;;;1.70;1.15;;;17.40;56.90;;;;;;5048471;28;20223;-67
2022/12/26 14:25:28;;;;;;;2.08;1.20;;;17.40;57.00;;;;;;5053351;28;20205;-67
2022/12/26 14:28:24;;;;;;;2.25;1.10;;;17.40;57.00;;;;;;5056014;28;20199;-66
2022/12/26 14:31:18;;;;;;;2.28;1.10;;;17.40;56.90;;;;;;5034408;28;20175;-67
2022/12/26 14:34:05;;;;;;;4.18;1.30;;;17.40;56.80;;;;;;5055124;28;20171;-67
2022/12/26 14:36:51;;;;;;;2.92;1.13;;;17.40;56.70;;;;;;5040857;28;20281;-68
2022/12/26 14:39:26;;;;;;;3.38;1.23;;;17.40;56.90;;;;;;5054344;28;20171;-66
2022/12/26 14:44:57;;;;;;;4.13;1.30;;;17.40;56.90;;;;;;5055700;28;20290;-67
2022/12/26 14:47:45;;;;;;;2.97;1.10;;;17.30;56.80;;;;;;5055174;28;20186;-66
2022/12/26 14:50:32;;;;;;;2.97;1.30;;;17.20;56.70;;;;;;5055832;28;20637;-67
2022/12/26 14:53:20;;;;;;;1.52;1.00;;;17.20;56.80;;;;;;5055366;28;20179;-67
2022/12/26 14:56:07;;;;;;;1.63;1.20;;;17.10;56.90;;;;;;5055569;28;20206;-67
2022/12/26 14:58:37;;;;;;;4.00;1.60;;;17.10;56.90;;;;;;5055537;28;20517;-65
2022/12/26 15:01:09;;;;;;;4.57;1.50;;;17.10;57.00;;;;;;5055103;28;20633;-66
2022/12/26 15:03:56;;;;;;;3.30;1.33;;;17.10;57.30;;;;;;5055470;28;20214;-66
2022/12/26 15:06:22;;;;;;;2.85;1.23;;;17.10;57.10;;;;;;5054632;28;20171;-65
2022/12/26 15:09:18;;;;;;;4.25;1.38;;;17.10;57.10;;;;;;5054825;28;20190;-66
2022/12/26 15:11:53;;;;;;;4.43;1.10;;;17.10;57.20;;;;;;5054226;28;20175;-67
2022/12/26 15:14:40;;;;;;;4.10;1.45;;;17.20;57.30;;;;;;5053817;28;20178;-70
2022/12/26 15:17:28;;;;;;;2.15;1.10;;;17.20;57.60;;;;;;5055671;28;20233;-68
2022/12/26 15:20:30;;;;;;;1.80;0.82;;;17.40;57.40;;;;;;5054261;28;20257;-69
2022/12/26 15:23:20;;;;;;;4.00;1.10;;;17.60;57.30;;;;;;5053405;28;20281;-67